createdAt,value
2023-05-18T00:00:14.333Z,6.15
2023-05-18T00:02:43.393Z,6.17
2023-05-18T00:05:11.646Z,5.99
2023-05-18T00:07:39.491Z,6.02
2023-05-18T00:10:08.313Z,6.01
2023-05-18T00:12:35.850Z,6.07
2023-05-18T00:15:03.542Z,6.06
2023-05-18T00:17:31.668Z,6.26
2023-05-18T00:20:00.990Z,6.80
2023-05-18T00:22:28.543Z,6.38
2023-05-18T00:24:56.072Z,6.13
2023-05-18T00:27:23.580Z,5.88
2023-05-18T00:29:51.172Z,5.83
2023-05-18T00:32:18.683Z,5.84
2023-05-18T00:34:46.181Z,6.16
2023-05-18T00:37:15.092Z,6.08
2023-05-18T00:39:42.621Z,5.69
2023-05-18T00:42:10.176Z,5.46
2023-05-18T00:44:37.672Z,5.30
2023-05-18T00:47:05.521Z,5.31
2023-05-18T00:49:33.067Z,5.21
2023-05-18T00:52:00.726Z,5.50
2023-05-18T00:54:29.643Z,5.46
2023-05-18T00:57:01.980Z,5.79
2023-05-18T00:59:29.853Z,5.88
2023-05-18T01:01:57.848Z,5.74
2023-05-18T01:04:27.756Z,6.35
2023-05-18T01:06:58.491Z,6.32
2023-05-18T01:09:26.266Z,6.60
2023-05-18T01:12:01.395Z,6.18
2023-05-18T01:14:33.809Z,5.85
2023-05-18T01:17:11.499Z,6.26
2023-05-18T01:20:08.539Z,5.79
2023-05-18T01:22:47.723Z,5.62
2023-05-18T01:25:29.779Z,5.81
2023-05-18T01:28:05.969Z,6.26
2023-05-18T01:30:34.604Z,6.30
2023-05-18T01:33:02.185Z,6.36
2023-05-18T01:35:29.916Z,6.08
2023-05-18T01:37:57.557Z,6.41
2023-05-18T01:40:28.400Z,6.33
2023-05-18T01:43:01.882Z,6.16
2023-05-18T01:45:30.812Z,6.66
2023-05-18T01:48:01.975Z,7.03
2023-05-18T01:50:37.861Z,7.06
2023-05-18T01:53:13.873Z,7.17
2023-05-18T01:55:43.092Z,7.17
2023-05-18T01:58:14.322Z,6.92
2023-05-18T02:00:41.987Z,6.36
2023-05-18T02:03:09.600Z,6.72
2023-05-18T02:05:37.225Z,6.95
2023-05-18T02:08:05.109Z,7.01
2023-05-18T02:10:32.699Z,6.95
2023-05-18T02:13:00.323Z,7.04
2023-05-18T02:15:29.654Z,6.95
2023-05-18T02:17:58.292Z,6.76
2023-05-18T02:20:27.395Z,5.98
2023-05-18T02:22:55.880Z,5.83
2023-05-18T02:25:23.602Z,6.11
2023-05-18T02:27:51.250Z,6.43
2023-05-18T02:30:19.086Z,6.35
2023-05-18T02:32:49.340Z,6.43
2023-05-18T02:35:18.010Z,6.05
2023-05-18T02:37:45.562Z,5.98
2023-05-18T02:40:14.208Z,5.68
2023-05-18T02:42:41.770Z,5.41
2023-05-18T02:45:10.153Z,5.59
2023-05-18T02:47:37.742Z,5.49
2023-05-18T02:50:07.778Z,5.70
2023-05-18T02:52:35.281Z,5.59
2023-05-18T02:55:02.789Z,5.33
2023-05-18T02:57:32.031Z,5.22
2023-05-18T02:59:59.665Z,5.44
2023-05-18T03:02:27.676Z,5.85
2023-05-18T03:04:57.351Z,5.50
2023-05-18T03:07:27.671Z,4.80
2023-05-18T03:09:55.516Z,4.66
2023-05-18T03:12:23.022Z,4.70
2023-05-18T03:14:50.632Z,4.80
2023-05-18T03:17:18.181Z,5.04
2023-05-18T03:19:45.878Z,4.84
2023-05-18T03:22:13.392Z,5.04
2023-05-18T03:24:43.191Z,5.08
2023-05-18T03:27:12.932Z,5.12
2023-05-18T03:29:40.534Z,5.18
2023-05-18T03:32:08.556Z,5.24
2023-05-18T03:34:37.128Z,5.00
2023-05-18T03:37:04.774Z,5.56
2023-05-18T03:39:32.258Z,5.59
2023-05-18T03:42:01.311Z,5.40
2023-05-18T03:44:28.862Z,5.02
2023-05-18T03:46:56.530Z,4.80
2023-05-18T03:49:24.060Z,5.04
2023-05-18T03:51:54.193Z,5.28
2023-05-18T03:54:21.821Z,5.10
2023-05-18T03:56:49.443Z,5.47
2023-05-18T03:59:18.289Z,5.87
2023-05-18T04:01:45.897Z,6.01
2023-05-18T04:04:18.082Z,6.14
2023-05-18T04:06:46.698Z,6.43
2023-05-18T04:09:17.304Z,6.63
2023-05-18T04:11:45.050Z,6.70
2023-05-18T04:14:14.110Z,7.25
2023-05-18T04:16:43.152Z,7.82
2023-05-18T04:19:10.848Z,8.45
2023-05-18T04:21:38.432Z,8.81
2023-05-18T04:24:07.169Z,9.63
2023-05-18T04:26:36.458Z,9.57
2023-05-18T04:29:04.279Z,9.59
2023-05-18T04:31:31.778Z,9.98
2023-05-18T04:34:00.668Z,10.55
2023-05-18T04:36:30.867Z,11.19
2023-05-18T04:38:59.502Z,11.35
2023-05-18T04:41:27.150Z,11.38
2023-05-18T04:43:54.741Z,11.48
2023-05-18T04:46:23.137Z,10.97
2023-05-18T04:48:50.878Z,11.39
2023-05-18T04:51:21.476Z,11.72
2023-05-18T04:53:50.113Z,11.25
2023-05-18T04:56:17.815Z,11.27
2023-05-18T04:58:46.082Z,11.44
2023-05-18T05:01:15.346Z,10.60
2023-05-18T05:03:43.270Z,10.87
2023-05-18T05:06:11.834Z,10.97
2023-05-18T05:08:40.718Z,11.55
2023-05-18T05:11:08.298Z,11.05
2023-05-18T05:13:36.494Z,11.18
2023-05-18T05:16:04.132Z,10.65
2023-05-18T05:18:31.671Z,11.34
2023-05-18T05:20:59.451Z,11.84
2023-05-18T05:23:26.980Z,11.98
2023-05-18T05:25:55.926Z,11.68
2023-05-18T05:28:23.431Z,11.83
2023-05-18T05:30:51.045Z,11.13
2023-05-18T05:33:19.063Z,10.62
2023-05-18T05:35:46.568Z,11.19
2023-05-18T05:38:14.061Z,11.21
2023-05-18T05:40:41.539Z,11.31
2023-05-18T05:43:10.439Z,11.40
2023-05-18T05:45:38.745Z,11.32
2023-05-18T05:48:06.644Z,11.85
2023-05-18T05:50:34.190Z,11.93
2023-05-18T05:53:01.936Z,12.06
2023-05-18T05:55:29.525Z,12.12
2023-05-18T05:57:57.186Z,12.35
2023-05-18T06:00:28.714Z,12.74
2023-05-18T06:02:56.652Z,13.21
2023-05-18T06:05:24.216Z,12.70
2023-05-18T06:07:51.894Z,12.07
2023-05-18T06:10:19.541Z,12.77
2023-05-18T06:12:47.081Z,12.81
2023-05-18T06:15:14.574Z,13.16
2023-05-18T06:17:44.097Z,13.66
2023-05-18T06:20:13.660Z,13.76
2023-05-18T06:22:41.326Z,14.20
2023-05-18T06:25:10.642Z,13.72
2023-05-18T06:27:38.217Z,14.68
2023-05-18T06:30:08.113Z,15.18
2023-05-18T06:32:37.408Z,15.15
2023-05-18T06:35:07.314Z,15.02
2023-05-18T06:37:34.982Z,15.13
2023-05-18T06:40:03.590Z,14.96
2023-05-18T06:42:32.703Z,15.52
2023-05-18T06:45:00.452Z,15.38
2023-05-18T06:47:27.987Z,15.50
2023-05-18T06:49:55.514Z,14.53
2023-05-18T06:52:26.340Z,15.98
2023-05-18T06:54:54.595Z,15.87
2023-05-18T06:57:22.152Z,16.46
2023-05-18T06:59:53.528Z,15.17
2023-05-18T07:02:21.434Z,14.32
2023-05-18T07:04:49.667Z,15.14
2023-05-18T07:07:17.677Z,16.83
2023-05-18T07:09:49.604Z,17.97
2023-05-18T07:12:17.529Z,17.82
2023-05-18T07:14:45.025Z,18.08
2023-05-18T07:17:12.531Z,17.45
2023-05-18T07:19:40.038Z,18.35
2023-05-18T07:22:07.646Z,18.39
2023-05-18T07:24:35.334Z,18.25
2023-05-18T07:27:04.498Z,17.53
2023-05-18T07:29:32.101Z,18.96
2023-05-18T07:31:59.845Z,19.07
2023-05-18T07:34:27.744Z,19.60
2023-05-18T07:36:55.294Z,19.52
2023-05-18T07:39:28.495Z,18.98
2023-05-18T07:41:56.115Z,19.38
2023-05-18T07:44:25.546Z,17.77
2023-05-18T07:46:53.186Z,17.61
2023-05-18T07:49:23.163Z,17.99
2023-05-18T07:51:51.137Z,18.43
2023-05-18T07:54:19.169Z,18.30
2023-05-18T07:56:46.775Z,18.25
2023-05-18T07:59:14.525Z,18.67
2023-05-18T08:01:45.015Z,19.27
2023-05-18T08:04:12.848Z,17.88
2023-05-18T08:06:40.646Z,17.05
2023-05-18T08:09:08.156Z,16.34
2023-05-18T08:11:35.669Z,16.52
2023-05-18T08:14:03.136Z,16.84
2023-05-18T08:16:30.782Z,16.65
2023-05-18T08:18:59.629Z,17.15
2023-05-18T08:21:28.508Z,17.96
2023-05-18T08:23:56.209Z,18.25
2023-05-18T08:26:24.488Z,17.84
2023-05-18T08:28:51.950Z,17.55
2023-05-18T08:31:19.614Z,17.30
2023-05-18T08:33:47.122Z,17.49
2023-05-18T08:36:16.936Z,17.70
2023-05-18T08:38:44.544Z,18.56
2023-05-18T08:41:20.944Z,19.01
2023-05-18T08:43:52.188Z,19.02
2023-05-18T08:46:22.732Z,18.16
2023-05-18T08:48:53.502Z,19.23
2023-05-18T08:51:23.395Z,19.67
2023-05-18T08:53:53.795Z,20.24
2023-05-18T08:56:24.221Z,20.10
2023-05-18T08:58:53.351Z,20.29
2023-05-18T09:01:22.939Z,19.54
2023-05-18T09:03:51.335Z,21.26
2023-05-18T09:06:19.688Z,21.38
2023-05-18T09:08:49.565Z,20.01
2023-05-18T09:11:18.239Z,18.61
2023-05-18T09:13:45.909Z,17.59
2023-05-18T09:16:13.471Z,16.59
2023-05-18T09:18:41.126Z,16.36
2023-05-18T09:21:08.807Z,15.99
2023-05-18T09:23:36.512Z,16.91
2023-05-18T09:26:05.927Z,16.39
2023-05-18T09:28:36.547Z,16.82
2023-05-18T09:31:04.742Z,18.33
2023-05-18T09:33:35.208Z,19.40
2023-05-18T09:36:03.179Z,18.55
2023-05-18T09:38:30.696Z,17.62
2023-05-18T09:40:58.181Z,16.48
2023-05-18T09:43:27.062Z,17.83
2023-05-18T09:45:54.550Z,19.05
2023-05-18T09:48:25.190Z,20.31
2023-05-18T09:50:53.073Z,20.64
2023-05-18T09:53:20.771Z,18.23
2023-05-18T09:55:50.804Z,17.02
2023-05-18T09:58:18.426Z,18.27
2023-05-18T10:00:51.730Z,18.47
2023-05-18T10:03:21.579Z,19.55
2023-05-18T10:05:49.291Z,20.13
2023-05-18T10:08:17.539Z,20.49
2023-05-18T10:10:46.402Z,20.25
2023-05-18T10:13:19.951Z,19.22
2023-05-18T10:15:50.855Z,18.61
2023-05-18T10:18:23.531Z,18.21
2023-05-18T10:20:52.342Z,18.53
2023-05-18T10:23:20.875Z,18.96
2023-05-18T10:25:50.548Z,19.59
2023-05-18T10:28:24.414Z,20.56
2023-05-18T10:30:54.565Z,20.71
2023-05-18T10:33:28.985Z,20.70
2023-05-18T10:35:57.732Z,20.03
2023-05-18T10:38:26.718Z,20.44
2023-05-18T10:40:56.464Z,20.10
2023-05-18T10:43:27.337Z,20.41
2023-05-18T10:45:58.056Z,19.88
2023-05-18T10:48:26.957Z,20.28
2023-05-18T10:50:55.839Z,19.66
2023-05-18T10:53:26.642Z,18.84
2023-05-18T10:55:55.438Z,18.63
2023-05-18T10:58:26.404Z,18.82
2023-05-18T11:00:57.743Z,19.12
2023-05-18T11:03:26.990Z,19.56
2023-05-18T11:06:06.604Z,19.53
2023-05-18T11:08:34.641Z,20.69
2023-05-18T11:11:04.097Z,19.51
2023-05-18T11:13:33.111Z,20.15
2023-05-18T11:16:06.753Z,21.32
2023-05-18T11:18:43.230Z,21.88
2023-05-18T11:21:51.520Z,22.52
2023-05-18T11:24:21.663Z,22.45
2023-05-18T11:26:50.593Z,19.11
2023-05-18T11:29:19.865Z,19.69
2023-05-18T11:31:50.260Z,18.77
2023-05-18T11:34:39.686Z,18.69
2023-05-18T11:37:10.121Z,17.80
2023-05-18T11:39:47.989Z,18.54
2023-05-18T11:42:20.326Z,17.91
2023-05-18T11:44:53.246Z,18.25
2023-05-18T11:47:22.260Z,17.99
2023-05-18T11:49:53.088Z,17.17
2023-05-18T11:52:22.168Z,17.76
2023-05-18T11:54:52.848Z,18.94
2023-05-18T11:57:21.499Z,20.53
2023-05-18T11:59:55.019Z,21.38
2023-05-18T12:02:26.732Z,21.55
2023-05-18T12:04:55.379Z,21.91
2023-05-18T12:07:25.089Z,22.44
2023-05-18T12:09:52.665Z,22.30
2023-05-18T12:12:20.943Z,23.18
2023-05-18T12:14:55.414Z,22.18
2023-05-18T12:17:24.674Z,21.64
2023-05-18T12:19:52.246Z,20.97
2023-05-18T12:22:19.951Z,20.72
2023-05-18T12:24:47.482Z,20.58
2023-05-18T12:27:14.998Z,22.10
2023-05-18T12:29:43.504Z,23.25
2023-05-18T12:32:12.418Z,23.57
2023-05-18T12:34:41.378Z,24.56
2023-05-18T12:37:08.899Z,24.43
2023-05-18T12:39:36.840Z,23.86
2023-05-18T12:42:15.987Z,23.98
2023-05-18T12:44:45.299Z,22.80
2023-05-18T12:47:13.894Z,20.48
2023-05-18T12:49:49.183Z,20.42
2023-05-18T12:52:17.661Z,20.38
2023-05-18T12:54:55.253Z,21.21
2023-05-18T12:57:26.505Z,20.38
2023-05-18T12:59:55.031Z,18.82
2023-05-18T13:02:28.402Z,18.03
2023-05-18T13:05:08.680Z,18.27
2023-05-18T13:07:37.405Z,18.91
2023-05-18T13:10:10.383Z,20.45
2023-05-18T13:12:49.090Z,21.94
2023-05-18T13:15:18.357Z,22.89
2023-05-18T13:17:55.699Z,22.44
2023-05-18T13:20:25.101Z,21.28
2023-05-18T13:22:52.639Z,20.31
2023-05-18T13:25:20.522Z,19.87
2023-05-18T13:27:49.536Z,19.88
2023-05-18T13:30:18.127Z,20.03
2023-05-18T13:32:45.783Z,20.71
2023-05-18T13:35:13.637Z,21.27
2023-05-18T13:37:42.494Z,19.63
2023-05-18T13:40:11.291Z,18.86
2023-05-18T13:42:38.854Z,17.36
2023-05-18T13:45:07.463Z,16.21
2023-05-18T13:47:35.024Z,17.30
2023-05-18T13:50:02.569Z,17.97
2023-05-18T13:52:30.046Z,17.64
2023-05-18T13:54:58.851Z,18.06
2023-05-18T13:57:27.113Z,18.06
2023-05-18T13:59:54.771Z,17.17
2023-05-18T14:02:22.301Z,17.25
2023-05-18T14:04:49.798Z,18.09
2023-05-18T14:07:17.340Z,19.43
2023-05-18T14:09:44.907Z,20.25
2023-05-18T14:12:13.827Z,19.22
2023-05-18T14:14:43.120Z,19.22
2023-05-18T14:17:11.540Z,19.30
2023-05-18T14:19:39.226Z,20.32
2023-05-18T14:22:07.063Z,21.41
2023-05-18T14:24:34.548Z,19.75
2023-05-18T14:27:02.045Z,19.16
2023-05-18T14:29:31.016Z,18.89
2023-05-18T14:31:58.482Z,19.47
2023-05-18T14:34:26.890Z,19.62
2023-05-18T14:36:54.750Z,20.14
2023-05-18T14:39:22.225Z,19.46
2023-05-18T14:41:49.697Z,18.45
2023-05-18T14:44:17.210Z,18.90
2023-05-18T14:46:46.330Z,19.95
2023-05-18T14:49:13.921Z,20.77
2023-05-18T14:51:41.464Z,21.69
2023-05-18T14:54:08.971Z,21.00
2023-05-18T14:56:36.580Z,21.08
2023-05-18T14:59:04.092Z,20.69
2023-05-18T15:01:31.681Z,19.94
2023-05-18T15:04:00.687Z,19.59
2023-05-18T15:06:29.346Z,20.23
2023-05-18T15:08:56.847Z,19.68
2023-05-18T15:11:24.397Z,18.79
2023-05-18T15:13:51.968Z,18.40
2023-05-18T15:16:20.367Z,18.25
2023-05-18T15:18:47.948Z,18.40
2023-05-18T15:21:16.776Z,18.79
2023-05-18T15:23:44.254Z,18.90
2023-05-18T15:26:11.800Z,18.37
2023-05-18T15:28:40.872Z,18.32
2023-05-18T15:31:09.150Z,17.76
2023-05-18T15:33:41.838Z,18.32
2023-05-18T15:36:09.814Z,19.00
2023-05-18T15:38:38.658Z,19.75
2023-05-18T15:41:06.350Z,19.51
2023-05-18T15:43:36.388Z,19.69
2023-05-18T15:46:03.942Z,19.73
2023-05-18T15:48:31.506Z,18.85
2023-05-18T15:50:59.079Z,17.96
2023-05-18T15:53:26.566Z,18.35
2023-05-18T15:55:58.568Z,18.83
2023-05-18T15:58:26.931Z,18.67
2023-05-18T16:00:54.589Z,18.91
2023-05-18T16:03:22.327Z,18.87
2023-05-18T16:05:50.203Z,20.15
2023-05-18T16:08:17.724Z,20.37
2023-05-18T16:10:45.275Z,19.42
2023-05-18T16:13:14.743Z,18.91
2023-05-18T16:15:42.313Z,18.87
2023-05-18T16:18:09.850Z,17.39
2023-05-18T16:20:37.626Z,17.60
2023-05-18T16:23:05.216Z,17.70
2023-05-18T16:25:33.031Z,16.98
2023-05-18T16:28:00.556Z,16.85
2023-05-18T16:30:29.644Z,16.83
2023-05-18T16:32:57.454Z,16.89
2023-05-18T16:35:24.998Z,17.39
2023-05-18T16:37:52.506Z,16.99
2023-05-18T16:40:20.034Z,16.73
2023-05-18T16:42:48.835Z,16.60
2023-05-18T16:45:16.451Z,16.59
2023-05-18T16:47:45.366Z,16.47
2023-05-18T16:50:12.895Z,16.84
2023-05-18T16:52:40.392Z,16.40
2023-05-18T16:55:08.349Z,16.28
2023-05-18T16:57:36.737Z,16.37
2023-05-18T17:00:08.624Z,16.45
2023-05-18T17:02:38.491Z,16.39
2023-05-18T17:05:08.393Z,16.43
2023-05-18T17:07:36.215Z,15.91
2023-05-18T17:10:04.070Z,16.14
2023-05-18T17:12:31.708Z,15.89
2023-05-18T17:14:59.218Z,15.91
2023-05-18T17:17:26.805Z,16.04
2023-05-18T17:19:54.432Z,16.09
2023-05-18T17:22:23.256Z,15.85
2023-05-18T17:24:50.774Z,15.84
2023-05-18T17:27:18.307Z,16.01
2023-05-18T17:29:45.800Z,16.18
2023-05-18T17:32:13.321Z,16.35
2023-05-18T17:34:41.007Z,16.00
2023-05-18T17:37:08.568Z,16.03
2023-05-18T17:39:37.410Z,15.93
2023-05-18T17:42:05.407Z,16.08
2023-05-18T17:44:32.910Z,15.65
2023-05-18T17:47:01.435Z,15.28
2023-05-18T17:49:28.991Z,15.26
2023-05-18T17:51:57.380Z,15.37
2023-05-18T17:54:25.879Z,15.22
2023-05-18T17:56:56.524Z,15.47
2023-05-18T17:59:24.091Z,15.63
2023-05-18T18:01:51.592Z,15.44
2023-05-18T18:04:19.186Z,15.57
2023-05-18T18:06:46.871Z,15.32
2023-05-18T18:09:14.386Z,14.98
2023-05-18T18:11:41.882Z,14.98
2023-05-18T18:14:11.472Z,14.79
2023-05-18T18:16:39.016Z,15.01
2023-05-18T18:19:06.594Z,14.77
2023-05-18T18:21:34.101Z,14.89
2023-05-18T18:24:02.697Z,14.79
2023-05-18T18:26:30.697Z,14.35
2023-05-18T18:28:58.198Z,14.43
2023-05-18T18:31:27.095Z,14.44
2023-05-18T18:33:54.682Z,14.49
2023-05-18T18:36:23.715Z,14.51
2023-05-18T18:38:52.430Z,14.42
2023-05-18T18:41:20.039Z,14.34
2023-05-18T18:43:47.526Z,14.02
2023-05-18T18:46:15.116Z,14.03
2023-05-18T18:48:43.957Z,14.14
2023-05-18T18:51:11.481Z,14.01
2023-05-18T18:53:38.963Z,13.97
2023-05-18T18:56:06.591Z,13.95
2023-05-18T18:58:34.119Z,14.17
2023-05-18T19:01:01.626Z,14.12
2023-05-18T19:03:29.256Z,14.06
2023-05-18T19:05:58.102Z,13.89
2023-05-18T19:08:25.760Z,14.01
2023-05-18T19:10:53.282Z,13.88
2023-05-18T19:13:21.003Z,13.87
2023-05-18T19:15:49.214Z,13.82
2023-05-18T19:18:16.810Z,13.72
2023-05-18T19:20:44.305Z,13.97
2023-05-18T19:23:13.133Z,14.04
2023-05-18T19:25:40.736Z,14.20
2023-05-18T19:28:08.268Z,14.04
2023-05-18T19:30:35.853Z,14.04
2023-05-18T19:33:03.407Z,13.84
2023-05-18T19:35:31.295Z,13.79
2023-05-18T19:37:59.728Z,13.78
2023-05-18T19:40:28.911Z,13.43
2023-05-18T19:42:59.471Z,13.52
2023-05-18T19:45:27.237Z,13.52
2023-05-18T19:47:54.856Z,13.61
2023-05-18T19:50:22.524Z,13.53
2023-05-18T19:52:50.108Z,13.22
2023-05-18T19:55:18.370Z,13.00
2023-05-18T19:57:47.213Z,13.30
2023-05-18T20:00:15.227Z,13.29
2023-05-18T20:02:43.039Z,13.14
2023-05-18T20:05:12.657Z,13.22
2023-05-18T20:07:40.990Z,13.36
2023-05-18T20:10:08.515Z,13.31
2023-05-18T20:12:36.102Z,13.26
2023-05-18T20:15:05.740Z,13.55
2023-05-18T20:17:33.265Z,13.55
2023-05-18T20:20:00.780Z,13.47
2023-05-18T20:22:28.353Z,13.60
2023-05-18T20:24:55.924Z,13.92
2023-05-18T20:27:23.486Z,13.94
2023-05-18T20:29:51.090Z,13.70
2023-05-18T20:32:20.008Z,13.63
2023-05-18T20:34:47.611Z,13.42
2023-05-18T20:37:15.118Z,13.38
2023-05-18T20:39:50.348Z,13.37
2023-05-18T20:42:21.713Z,13.37
2023-05-18T20:44:50.826Z,13.07
2023-05-18T20:47:20.331Z,13.03
2023-05-18T20:49:48.530Z,12.88
2023-05-18T20:52:16.597Z,12.89
2023-05-18T20:54:44.472Z,12.98
2023-05-18T20:57:12.066Z,12.71
2023-05-18T20:59:39.644Z,12.77
2023-05-18T21:02:07.597Z,13.06
2023-05-18T21:04:36.474Z,12.85
2023-05-18T21:07:05.493Z,13.17
2023-05-18T21:09:34.131Z,13.24
2023-05-18T21:12:02.595Z,13.24
2023-05-18T21:14:30.164Z,12.70
2023-05-18T21:16:57.711Z,12.54
2023-05-18T21:19:25.590Z,12.67
2023-05-18T21:21:54.618Z,12.64
2023-05-18T21:24:22.149Z,12.59
2023-05-18T21:26:49.682Z,12.67
2023-05-18T21:29:17.171Z,12.67
2023-05-18T21:31:44.751Z,12.93
2023-05-18T21:34:12.377Z,12.77
2023-05-18T21:36:40.216Z,12.71
2023-05-18T21:39:09.572Z,12.58
2023-05-18T21:41:40.178Z,12.71
2023-05-18T21:44:07.822Z,12.83
2023-05-18T21:46:35.960Z,12.94
2023-05-18T21:49:04.628Z,13.07
2023-05-18T21:51:32.332Z,12.81
2023-05-18T21:54:01.215Z,12.83
2023-05-18T21:56:30.268Z,12.82
2023-05-18T21:58:57.790Z,12.80
2023-05-18T22:01:25.354Z,12.80
2023-05-18T22:03:52.911Z,12.60
2023-05-18T22:06:20.862Z,12.64
2023-05-18T22:08:48.752Z,12.54
2023-05-18T22:11:16.280Z,12.48
2023-05-18T22:13:45.736Z,12.51
2023-05-18T22:16:13.258Z,12.37
2023-05-18T22:18:40.781Z,12.32
2023-05-18T22:21:08.436Z,12.32
2023-05-18T22:23:35.924Z,12.56
2023-05-18T22:26:03.442Z,12.73
2023-05-18T22:28:30.954Z,12.68
2023-05-18T22:30:59.794Z,12.88
2023-05-18T22:33:27.482Z,13.42
2023-05-18T22:35:55.000Z,13.42
2023-05-18T22:38:23.053Z,13.30
2023-05-18T22:40:53.875Z,13.25
2023-05-18T22:43:21.844Z,13.49
2023-05-18T22:45:49.633Z,13.63
2023-05-18T22:48:18.512Z,13.73
2023-05-18T22:50:46.344Z,13.90
2023-05-18T22:53:13.837Z,13.83
2023-05-18T22:55:41.453Z,13.92
2023-05-18T22:58:09.054Z,14.07
2023-05-18T23:00:36.624Z,14.05
2023-05-18T23:03:04.394Z,14.04
2023-05-18T23:05:33.478Z,13.45
2023-05-18T23:08:02.680Z,13.07
2023-05-18T23:10:30.631Z,13.16
2023-05-18T23:12:58.350Z,12.89
2023-05-18T23:15:25.919Z,13.02
2023-05-18T23:17:54.985Z,13.32
2023-05-18T23:20:23.703Z,13.16
2023-05-18T23:22:52.656Z,13.30
2023-05-18T23:25:21.047Z,12.87
2023-05-18T23:27:48.562Z,12.86
2023-05-18T23:30:16.130Z,12.92
2023-05-18T23:32:45.425Z,12.83
2023-05-18T23:35:14.294Z,12.89
2023-05-18T23:37:43.031Z,12.62
2023-05-18T23:40:13.621Z,12.57
2023-05-18T23:42:41.659Z,12.55
2023-05-18T23:45:10.843Z,12.78
2023-05-18T23:47:38.903Z,12.52
2023-05-18T23:50:08.144Z,12.37
2023-05-18T23:52:37.120Z,12.09
2023-05-18T23:55:05.981Z,12.02
2023-05-18T23:57:35.572Z,11.85
